sensor_id;sensor_type;location;lat;lon;timestamp;P1;durP1;ratioP1;P2;durP2;ratioP2
55220;SDS011;41089;51.448;6.604;2023-02-12T00:03:42;56.55;;;40.42;;
55220;SDS011;41089;51.448;6.604;2023-02-12T00:09:43;55.78;;;38.65;;
55220;SDS011;41089;51.448;6.604;2023-02-12T00:15:43;59.60;;;40.60;;
55220;SDS011;41089;51.448;6.604;2023-02-12T00:21:44;58.28;;;39.75;;
55220;SDS011;41089;51.448;6.604;2023-02-12T00:27:44;57.72;;;36.63;;
55220;SDS011;41089;51.448;6.604;2023-02-12T00:33:45;57.43;;;38.87;;
55220;SDS011;41089;51.448;6.604;2023-02-12T00:39:46;57.65;;;41.10;;
55220;SDS011;41089;51.448;6.604;2023-02-12T00:45:46;56.73;;;41.23;;
55220;SDS011;41089;51.448;6.604;2023-02-12T00:51:47;91.77;;;53.50;;
55220;SDS011;41089;51.448;6.604;2023-02-12T00:57:48;75.60;;;47.72;;
55220;SDS011;41089;51.448;6.604;2023-02-12T01:03:48;76.75;;;48.83;;
55220;SDS011;41089;51.448;6.604;2023-02-12T01:09:49;66.10;;;43.75;;
55220;SDS011;41089;51.448;6.604;2023-02-12T01:15:49;60.57;;;42.43;;
55220;SDS011;41089;51.448;6.604;2023-02-12T01:22:00;61.38;;;41.78;;
55220;SDS011;41089;51.448;6.604;2023-02-12T01:28:01;61.92;;;41.85;;
55220;SDS011;41089;51.448;6.604;2023-02-12T01:34:02;61.27;;;38.77;;
55220;SDS011;41089;51.448;6.604;2023-02-12T01:40:04;61.85;;;39.78;;
55220;SDS011;41089;51.448;6.604;2023-02-12T01:46:06;54.35;;;37.88;;
55220;SDS011;41089;51.448;6.604;2023-02-12T01:52:29;54.65;;;37.97;;
55220;SDS011;41089;51.448;6.604;2023-02-12T01:58:30;53.10;;;36.47;;
55220;SDS011;41089;51.448;6.604;2023-02-12T02:04:39;54.22;;;37.53;;
55220;SDS011;41089;51.448;6.604;2023-02-12T02:10:41;54.55;;;38.10;;
55220;SDS011;41089;51.448;6.604;2023-02-12T02:16:42;52.47;;;37.97;;
55220;SDS011;41089;51.448;6.604;2023-02-12T02:42:07;55.65;;;37.95;;
55220;SDS011;41089;51.448;6.604;2023-02-12T02:48:23;53.35;;;36.47;;
55220;SDS011;41089;51.448;6.604;2023-02-12T02:54:36;55.15;;;36.95;;
55220;SDS011;41089;51.448;6.604;2023-02-12T03:00:58;51.35;;;37.08;;
55220;SDS011;41089;51.448;6.604;2023-02-12T03:07:23;63.25;;;39.90;;
55220;SDS011;41089;51.448;6.604;2023-02-12T03:13:29;52.28;;;37.97;;
55220;SDS011;41089;51.448;6.604;2023-02-12T03:19:37;54.78;;;36.00;;
55220;SDS011;41089;51.448;6.604;2023-02-12T03:25:52;52.58;;;35.00;;
55220;SDS011;41089;51.448;6.604;2023-02-12T03:50:52;53.72;;;34.65;;
55220;SDS011;41089;51.448;6.604;2023-02-12T03:56:59;51.13;;;35.35;;
55220;SDS011;41089;51.448;6.604;2023-02-12T04:03:02;51.85;;;34.33;;
55220;SDS011;41089;51.448;6.604;2023-02-12T04:09:04;52.20;;;34.85;;
55220;SDS011;41089;51.448;6.604;2023-02-12T04:21:38;51.67;;;35.60;;
55220;SDS011;41089;51.448;6.604;2023-02-12T04:40:14;51.40;;;35.95;;
55220;SDS011;41089;51.448;6.604;2023-02-12T04:46:16;51.30;;;34.65;;
55220;SDS011;41089;51.448;6.604;2023-02-12T04:52:16;49.17;;;35.40;;
55220;SDS011;41089;51.448;6.604;2023-02-12T04:58:17;52.20;;;36.00;;
55220;SDS011;41089;51.448;6.604;2023-02-12T05:04:18;49.92;;;35.40;;
55220;SDS011;41089;51.448;6.604;2023-02-12T05:10:18;49.92;;;36.20;;
55220;SDS011;41089;51.448;6.604;2023-02-12T05:16:19;48.50;;;34.45;;
55220;SDS011;41089;51.448;6.604;2023-02-12T05:22:20;42.38;;;31.85;;
55220;SDS011;41089;51.448;6.604;2023-02-12T05:28:20;49.10;;;33.80;;
55220;SDS011;41089;51.448;6.604;2023-02-12T05:34:21;50.97;;;35.67;;
55220;SDS011;41089;51.448;6.604;2023-02-12T05:40:21;45.03;;;33.25;;
55220;SDS011;41089;51.448;6.604;2023-02-12T05:46:22;44.87;;;33.00;;
55220;SDS011;41089;51.448;6.604;2023-02-12T05:52:22;48.25;;;34.22;;
55220;SDS011;41089;51.448;6.604;2023-02-12T05:58:23;53.87;;;34.53;;
55220;SDS011;41089;51.448;6.604;2023-02-12T06:04:28;48.03;;;33.90;;
55220;SDS011;41089;51.448;6.604;2023-02-12T06:10:28;42.08;;;32.38;;
55220;SDS011;41089;51.448;6.604;2023-02-12T06:16:29;44.93;;;32.63;;
55220;SDS011;41089;51.448;6.604;2023-02-12T06:22:29;49.00;;;34.17;;
55220;SDS011;41089;51.448;6.604;2023-02-12T06:28:30;50.60;;;35.33;;
55220;SDS011;41089;51.448;6.604;2023-02-12T06:34:30;54.58;;;36.80;;
55220;SDS011;41089;51.448;6.604;2023-02-12T06:40:31;46.95;;;33.65;;
55220;SDS011;41089;51.448;6.604;2023-02-12T06:46:31;46.58;;;33.97;;
55220;SDS011;41089;51.448;6.604;2023-02-12T06:52:32;42.70;;;32.33;;
55220;SDS011;41089;51.448;6.604;2023-02-12T06:58:32;51.87;;;33.03;;
55220;SDS011;41089;51.448;6.604;2023-02-12T07:04:33;45.97;;;32.87;;
55220;SDS011;41089;51.448;6.604;2023-02-12T07:10:34;46.87;;;33.13;;
55220;SDS011;41089;51.448;6.604;2023-02-12T07:16:35;44.15;;;31.55;;
55220;SDS011;41089;51.448;6.604;2023-02-12T07:22:35;44.63;;;32.43;;
55220;SDS011;41089;51.448;6.604;2023-02-12T07:28:37;45.53;;;32.28;;
55220;SDS011;41089;51.448;6.604;2023-02-12T07:34:38;44.17;;;31.60;;
55220;SDS011;41089;51.448;6.604;2023-02-12T07:40:38;48.10;;;32.33;;
55220;SDS011;41089;51.448;6.604;2023-02-12T07:46:40;48.95;;;33.05;;
55220;SDS011;41089;51.448;6.604;2023-02-12T07:52:42;47.75;;;32.58;;
55220;SDS011;41089;51.448;6.604;2023-02-12T07:58:43;45.55;;;33.22;;
55220;SDS011;41089;51.448;6.604;2023-02-12T08:04:44;49.38;;;34.60;;
55220;SDS011;41089;51.448;6.604;2023-02-12T08:10:50;44.23;;;33.17;;
55220;SDS011;41089;51.448;6.604;2023-02-12T08:16:51;45.97;;;33.50;;
55220;SDS011;41089;51.448;6.604;2023-02-12T08:22:52;49.65;;;35.90;;
55220;SDS011;41089;51.448;6.604;2023-02-12T08:28:57;51.05;;;38.83;;
55220;SDS011;41089;51.448;6.604;2023-02-12T08:35:17;47.92;;;35.20;;
55220;SDS011;41089;51.448;6.604;2023-02-12T08:41:22;52.58;;;37.45;;
55220;SDS011;41089;51.448;6.604;2023-02-12T08:47:23;53.00;;;37.15;;
55220;SDS011;41089;51.448;6.604;2023-02-12T08:53:25;51.38;;;38.25;;
55220;SDS011;41089;51.448;6.604;2023-02-12T08:59:25;51.65;;;36.13;;
55220;SDS011;41089;51.448;6.604;2023-02-12T09:05:26;79.35;;;57.70;;
55220;SDS011;41089;51.448;6.604;2023-02-12T09:11:27;52.78;;;38.92;;
55220;SDS011;41089;51.448;6.604;2023-02-12T09:17:32;46.85;;;34.95;;
55220;SDS011;41089;51.448;6.604;2023-02-12T09:23:33;52.55;;;39.00;;
55220;SDS011;41089;51.448;6.604;2023-02-12T09:29:34;44.50;;;35.22;;
55220;SDS011;41089;51.448;6.604;2023-02-12T09:35:34;45.08;;;33.83;;
55220;SDS011;41089;51.448;6.604;2023-02-12T09:47:46;43.97;;;33.22;;
55220;SDS011;41089;51.448;6.604;2023-02-12T09:53:53;43.35;;;31.88;;
55220;SDS011;41089;51.448;6.604;2023-02-12T10:00:10;44.10;;;33.05;;
55220;SDS011;41089;51.448;6.604;2023-02-12T10:06:16;40.30;;;32.30;;
55220;SDS011;41089;51.448;6.604;2023-02-12T10:25:06;33.35;;;27.33;;
55220;SDS011;41089;51.448;6.604;2023-02-12T10:31:33;34.53;;;26.15;;
55220;SDS011;41089;51.448;6.604;2023-02-12T10:37:41;29.30;;;23.05;;
55220;SDS011;41089;51.448;6.604;2023-02-12T10:43:53;27.83;;;23.83;;
55220;SDS011;41089;51.448;6.604;2023-02-12T10:49:58;25.10;;;19.67;;
55220;SDS011;41089;51.448;6.604;2023-02-12T10:56:11;26.85;;;20.50;;
55220;SDS011;41089;51.448;6.604;2023-02-12T11:02:24;22.38;;;19.52;;
55220;SDS011;41089;51.448;6.604;2023-02-12T11:08:34;22.67;;;18.52;;
55220;SDS011;41089;51.448;6.604;2023-02-12T11:14:36;25.75;;;21.25;;
55220;SDS011;41089;51.448;6.604;2023-02-12T11:20:38;28.30;;;22.73;;
55220;SDS011;41089;51.448;6.604;2023-02-12T11:26:40;25.77;;;21.00;;
55220;SDS011;41089;51.448;6.604;2023-02-12T11:32:41;23.75;;;20.63;;
55220;SDS011;41089;51.448;6.604;2023-02-12T11:38:51;26.92;;;21.55;;
55220;SDS011;41089;51.448;6.604;2023-02-12T11:44:56;26.25;;;21.30;;
55220;SDS011;41089;51.448;6.604;2023-02-12T11:51:00;31.08;;;23.70;;
55220;SDS011;41089;51.448;6.604;2023-02-12T11:57:03;30.02;;;22.33;;
55220;SDS011;41089;51.448;6.604;2023-02-12T12:09:29;30.48;;;23.55;;
55220;SDS011;41089;51.448;6.604;2023-02-12T12:15:46;28.02;;;23.17;;
55220;SDS011;41089;51.448;6.604;2023-02-12T12:22:29;29.20;;;23.75;;
55220;SDS011;41089;51.448;6.604;2023-02-12T12:34:35;31.23;;;25.27;;
55220;SDS011;41089;51.448;6.604;2023-02-12T12:40:47;33.53;;;25.47;;
55220;SDS011;41089;51.448;6.604;2023-02-12T13:18:39;33.22;;;26.33;;
55220;SDS011;41089;51.448;6.604;2023-02-12T13:30:57;34.95;;;25.70;;
55220;SDS011;41089;51.448;6.604;2023-02-12T13:36:59;32.88;;;26.02;;
55220;SDS011;41089;51.448;6.604;2023-02-12T13:43:04;29.70;;;24.25;;
55220;SDS011;41089;51.448;6.604;2023-02-12T13:55:18;32.25;;;23.75;;
55220;SDS011;41089;51.448;6.604;2023-02-12T14:08:00;31.75;;;25.40;;
55220;SDS011;41089;51.448;6.604;2023-02-12T14:14:04;33.90;;;25.30;;
55220;SDS011;41089;51.448;6.604;2023-02-12T14:20:19;33.47;;;25.85;;
55220;SDS011;41089;51.448;6.604;2023-02-12T14:26:22;32.72;;;26.17;;
55220;SDS011;41089;51.448;6.604;2023-02-12T14:44:47;33.78;;;26.70;;
55220;SDS011;41089;51.448;6.604;2023-02-12T14:50:55;32.38;;;23.73;;
55220;SDS011;41089;51.448;6.604;2023-02-12T14:56:57;35.08;;;25.65;;
55220;SDS011;41089;51.448;6.604;2023-02-12T15:09:33;31.60;;;25.70;;
55220;SDS011;41089;51.448;6.604;2023-02-12T15:15:38;36.00;;;26.48;;
55220;SDS011;41089;51.448;6.604;2023-02-12T15:21:46;40.97;;;26.30;;
55220;SDS011;41089;51.448;6.604;2023-02-12T15:27:47;37.47;;;26.05;;
55220;SDS011;41089;51.448;6.604;2023-02-12T15:33:48;39.25;;;25.17;;
55220;SDS011;41089;51.448;6.604;2023-02-12T15:39:52;36.85;;;25.67;;
55220;SDS011;41089;51.448;6.604;2023-02-12T15:45:55;41.20;;;27.27;;
55220;SDS011;41089;51.448;6.604;2023-02-12T15:51:55;36.50;;;25.35;;
55220;SDS011;41089;51.448;6.604;2023-02-12T15:57:59;37.08;;;25.42;;
55220;SDS011;41089;51.448;6.604;2023-02-12T16:04:01;35.58;;;27.40;;
55220;SDS011;41089;51.448;6.604;2023-02-12T16:10:03;38.60;;;31.70;;
55220;SDS011;41089;51.448;6.604;2023-02-12T16:22:15;32.38;;;22.42;;
55220;SDS011;41089;51.448;6.604;2023-02-12T16:28:21;34.72;;;26.10;;
55220;SDS011;41089;51.448;6.604;2023-02-12T16:34:44;36.47;;;27.67;;
55220;SDS011;41089;51.448;6.604;2023-02-12T16:47:30;34.85;;;27.08;;
55220;SDS011;41089;51.448;6.604;2023-02-12T16:59:36;32.60;;;24.90;;
55220;SDS011;41089;51.448;6.604;2023-02-12T17:05:40;32.65;;;24.58;;
55220;SDS011;41089;51.448;6.604;2023-02-12T17:11:42;31.05;;;25.15;;
55220;SDS011;41089;51.448;6.604;2023-02-12T17:17:44;31.23;;;25.50;;
55220;SDS011;41089;51.448;6.604;2023-02-12T17:23:44;35.03;;;25.83;;
55220;SDS011;41089;51.448;6.604;2023-02-12T17:29:45;35.77;;;25.60;;
55220;SDS011;41089;51.448;6.604;2023-02-12T17:35:46;30.77;;;24.75;;
55220;SDS011;41089;51.448;6.604;2023-02-12T17:41:46;32.73;;;25.23;;
55220;SDS011;41089;51.448;6.604;2023-02-12T17:47:47;36.38;;;25.23;;
55220;SDS011;41089;51.448;6.604;2023-02-12T17:53:53;32.90;;;24.65;;
55220;SDS011;41089;51.448;6.604;2023-02-12T17:59:54;34.42;;;25.67;;
55220;SDS011;41089;51.448;6.604;2023-02-12T18:05:55;36.43;;;26.23;;
55220;SDS011;41089;51.448;6.604;2023-02-12T18:11:56;33.03;;;24.88;;
55220;SDS011;41089;51.448;6.604;2023-02-12T18:17:56;32.75;;;26.50;;
55220;SDS011;41089;51.448;6.604;2023-02-12T18:23:57;36.33;;;25.57;;
55220;SDS011;41089;51.448;6.604;2023-02-12T18:29:57;32.65;;;24.48;;
55220;SDS011;41089;51.448;6.604;2023-02-12T18:36:02;32.60;;;25.80;;
55220;SDS011;41089;51.448;6.604;2023-02-12T18:42:07;34.75;;;25.20;;
55220;SDS011;41089;51.448;6.604;2023-02-12T18:48:08;38.00;;;26.90;;
55220;SDS011;41089;51.448;6.604;2023-02-12T18:54:11;38.57;;;27.63;;
55220;SDS011;41089;51.448;6.604;2023-02-12T19:00:12;40.10;;;28.73;;
55220;SDS011;41089;51.448;6.604;2023-02-12T19:06:13;40.55;;;28.38;;
55220;SDS011;41089;51.448;6.604;2023-02-12T19:12:14;36.80;;;27.55;;
55220;SDS011;41089;51.448;6.604;2023-02-12T19:18:14;39.58;;;27.80;;
55220;SDS011;41089;51.448;6.604;2023-02-12T19:24:15;40.30;;;29.52;;
55220;SDS011;41089;51.448;6.604;2023-02-12T19:30:16;37.95;;;29.75;;
55220;SDS011;41089;51.448;6.604;2023-02-12T19:36:17;41.90;;;30.15;;
55220;SDS011;41089;51.448;6.604;2023-02-12T19:42:18;38.50;;;29.05;;
55220;SDS011;41089;51.448;6.604;2023-02-12T19:48:19;44.00;;;29.83;;
55220;SDS011;41089;51.448;6.604;2023-02-12T19:54:20;38.50;;;29.63;;
55220;SDS011;41089;51.448;6.604;2023-02-12T20:00:22;41.53;;;29.67;;
55220;SDS011;41089;51.448;6.604;2023-02-12T20:06:24;40.40;;;28.87;;
55220;SDS011;41089;51.448;6.604;2023-02-12T20:12:26;41.17;;;30.08;;
55220;SDS011;41089;51.448;6.604;2023-02-12T20:18:26;40.80;;;30.40;;
55220;SDS011;41089;51.448;6.604;2023-02-12T20:24:28;42.05;;;29.98;;
55220;SDS011;41089;51.448;6.604;2023-02-12T20:30:29;42.58;;;30.40;;
55220;SDS011;41089;51.448;6.604;2023-02-12T20:36:31;44.60;;;32.53;;
55220;SDS011;41089;51.448;6.604;2023-02-12T20:42:32;42.55;;;30.98;;
55220;SDS011;41089;51.448;6.604;2023-02-12T20:48:33;43.87;;;30.27;;
55220;SDS011;41089;51.448;6.604;2023-02-12T20:54:34;43.08;;;31.17;;
55220;SDS011;41089;51.448;6.604;2023-02-12T21:00:38;42.95;;;30.95;;
55220;SDS011;41089;51.448;6.604;2023-02-12T21:06:39;38.85;;;30.38;;
55220;SDS011;41089;51.448;6.604;2023-02-12T21:12:40;41.65;;;31.25;;
55220;SDS011;41089;51.448;6.604;2023-02-12T21:18:40;50.75;;;36.75;;
55220;SDS011;41089;51.448;6.604;2023-02-12T21:24:41;43.50;;;33.05;;
55220;SDS011;41089;51.448;6.604;2023-02-12T21:30:41;42.72;;;32.03;;
55220;SDS011;41089;51.448;6.604;2023-02-12T21:36:42;45.97;;;36.63;;
55220;SDS011;41089;51.448;6.604;2023-02-12T21:42:46;39.47;;;31.40;;
55220;SDS011;41089;51.448;6.604;2023-02-12T21:48:47;42.00;;;31.93;;
55220;SDS011;41089;51.448;6.604;2023-02-12T21:54:48;35.90;;;27.70;;
55220;SDS011;41089;51.448;6.604;2023-02-12T22:00:48;35.35;;;28.38;;
55220;SDS011;41089;51.448;6.604;2023-02-12T22:06:49;39.35;;;30.52;;
55220;SDS011;41089;51.448;6.604;2023-02-12T22:12:51;33.90;;;25.50;;
55220;SDS011;41089;51.448;6.604;2023-02-12T22:18:52;33.10;;;25.00;;
55220;SDS011;41089;51.448;6.604;2023-02-12T22:24:58;31.30;;;22.90;;
55220;SDS011;41089;51.448;6.604;2023-02-12T22:30:58;31.17;;;22.80;;
55220;SDS011;41089;51.448;6.604;2023-02-12T22:36:59;28.08;;;21.30;;
55220;SDS011;41089;51.448;6.604;2023-02-12T22:42:59;27.30;;;20.63;;
55220;SDS011;41089;51.448;6.604;2023-02-12T22:48:59;24.90;;;20.33;;
55220;SDS011;41089;51.448;6.604;2023-02-12T22:55:01;24.03;;;18.63;;
55220;SDS011;41089;51.448;6.604;2023-02-12T23:01:05;24.80;;;18.20;;
55220;SDS011;41089;51.448;6.604;2023-02-12T23:07:07;23.73;;;18.42;;
55220;SDS011;41089;51.448;6.604;2023-02-12T23:13:07;29.80;;;20.83;;
55220;SDS011;41089;51.448;6.604;2023-02-12T23:19:09;21.98;;;17.38;;
55220;SDS011;41089;51.448;6.604;2023-02-12T23:25:09;25.02;;;17.88;;
55220;SDS011;41089;51.448;6.604;2023-02-12T23:31:10;24.43;;;18.00;;
55220;SDS011;41089;51.448;6.604;2023-02-12T23:37:10;25.92;;;17.80;;
55220;SDS011;41089;51.448;6.604;2023-02-12T23:43:11;20.83;;;16.00;;
55220;SDS011;41089;51.448;6.604;2023-02-12T23:49:11;19.38;;;13.52;;
55220;SDS011;41089;51.448;6.604;2023-02-12T23:55:12;17.63;;;12.73;;
